createdAt,value
2018-06-01T00:00:09.989Z,40.67
2018-06-01T00:02:38.374Z,39.40
2018-06-01T00:05:06.755Z,40.10
2018-06-01T00:07:35.123Z,38.90
2018-06-01T00:10:03.618Z,39.90
2018-06-01T00:12:31.984Z,38.20
2018-06-01T00:15:00.430Z,37.50
2018-06-01T00:17:28.780Z,36.30
2018-06-01T00:19:57.161Z,37.17
2018-06-01T00:22:25.539Z,36.77
2018-06-01T00:24:53.998Z,39.17
2018-06-01T00:27:22.387Z,39.50
2018-06-01T00:29:50.796Z,39.07
2018-06-01T00:32:19.212Z,38.90
2018-06-01T00:34:47.684Z,37.00
2018-06-01T00:37:16.081Z,35.00
2018-06-01T00:39:44.582Z,35.60
2018-06-01T00:42:13.044Z,35.43
2018-06-01T00:44:41.431Z,35.27
2018-06-01T00:47:09.800Z,35.90
2018-06-01T00:49:38.180Z,36.93
2018-06-01T00:52:06.587Z,38.67
2018-06-01T00:54:46.791Z,37.07
2018-06-01T00:57:15.213Z,38.47
2018-06-01T00:59:43.641Z,40.00
2018-06-01T01:02:11.990Z,39.20
2018-06-01T01:04:40.354Z,40.00
2018-06-01T01:07:08.709Z,38.70
2018-06-01T01:09:37.177Z,38.03
2018-06-01T01:12:05.559Z,35.30
2018-06-01T01:14:33.937Z,32.63
2018-06-01T01:17:02.354Z,33.73
2018-06-01T01:19:30.783Z,32.77
2018-06-01T01:21:59.240Z,32.47
2018-06-01T01:24:27.618Z,31.80
2018-06-01T01:26:55.989Z,34.20
2018-06-01T01:29:24.402Z,31.70
2018-06-01T01:31:52.781Z,30.83
2018-06-01T01:34:21.210Z,31.13
2018-06-01T01:36:49.603Z,28.73
2018-06-01T01:39:17.974Z,30.67
2018-06-01T01:41:46.508Z,29.10
2018-06-01T01:44:14.916Z,29.60
2018-06-01T01:46:43.279Z,29.90
2018-06-01T01:49:11.695Z,30.17
2018-06-01T01:51:40.061Z,34.33
2018-06-01T01:54:08.514Z,32.70
2018-06-01T01:56:36.896Z,35.93
2018-06-01T01:59:05.328Z,33.47
2018-06-01T02:01:33.738Z,32.40
2018-06-01T02:04:02.257Z,31.27
2018-06-01T02:06:30.644Z,31.67
2018-06-01T02:11:33.550Z,31.80
2018-06-01T02:14:01.917Z,28.40
2018-06-01T02:16:31.434Z,29.13
2018-06-01T02:18:59.855Z,29.37
2018-06-01T02:21:28.230Z,29.30
2018-06-01T02:23:57.577Z,28.80
2018-06-01T02:26:26.065Z,29.80
2018-06-01T02:28:54.434Z,30.70
2018-06-01T02:31:22.786Z,28.73
2018-06-01T02:33:53.211Z,27.83
2018-06-01T02:36:21.608Z,29.47
2018-06-01T02:38:50.076Z,28.53
2018-06-01T02:41:18.485Z,27.50
2018-06-01T02:43:47.911Z,26.97
2018-06-01T02:46:16.292Z,26.67
2018-06-01T02:48:45.648Z,26.83
2018-06-01T02:51:14.064Z,28.37
2018-06-01T02:53:42.450Z,31.30
2018-06-01T02:56:10.985Z,30.70
2018-06-01T02:58:39.341Z,28.43
2018-06-01T03:01:07.929Z,27.17
2018-06-01T03:03:36.333Z,28.53
2018-06-01T03:06:04.825Z,29.20
2018-06-01T03:08:33.278Z,27.40
2018-06-01T03:11:01.663Z,27.10
2018-06-01T03:13:30.065Z,27.30
2018-06-01T03:15:58.527Z,26.83
2018-06-01T03:18:26.990Z,24.33
2018-06-01T03:20:55.481Z,25.20
2018-06-01T03:23:23.959Z,25.27
2018-06-01T03:25:52.369Z,25.00
2018-06-01T03:28:20.754Z,23.50
2018-06-01T03:30:49.213Z,25.60
2018-06-01T03:33:18.637Z,25.30
2018-06-01T03:35:47.180Z,24.27
2018-06-01T03:38:16.438Z,26.50
2018-06-01T03:40:45.133Z,25.60
2018-06-01T03:43:13.508Z,24.60
2018-06-01T03:45:41.936Z,24.80
2018-06-01T03:48:10.297Z,25.30
2018-06-01T03:50:38.700Z,25.47
2018-06-01T03:53:07.176Z,23.13
2018-06-01T03:55:35.712Z,25.40
2018-06-01T03:58:04.094Z,25.10
2018-06-01T04:00:32.561Z,24.13
2018-06-01T04:03:01.092Z,24.97
2018-06-01T04:05:29.526Z,27.10
2018-06-01T04:07:57.974Z,27.67
2018-06-01T04:10:26.393Z,26.67
2018-06-01T04:12:54.898Z,25.30
2018-06-01T04:15:23.325Z,28.03
2018-06-01T04:17:53.515Z,23.23
2018-06-01T04:20:21.909Z,22.23
2018-06-01T04:22:50.342Z,22.33
2018-06-01T04:25:18.757Z,25.37
2018-06-01T04:27:47.235Z,23.20
2018-06-01T04:30:15.630Z,26.60
2018-06-01T04:32:44.160Z,22.60
2018-06-01T04:35:12.544Z,21.33
2018-06-01T04:37:40.981Z,22.70
2018-06-01T04:40:09.405Z,20.27
2018-06-01T04:42:37.825Z,21.83
2018-06-01T04:45:06.382Z,20.57
2018-06-01T04:47:34.850Z,20.57
2018-06-01T04:50:03.351Z,21.20
2018-06-01T04:52:31.888Z,20.87
2018-06-01T04:55:00.285Z,20.30
2018-06-01T04:57:28.632Z,19.37
2018-06-01T04:59:57.085Z,20.70
2018-06-01T05:02:25.505Z,19.53
2018-06-01T05:04:54.076Z,18.00
2018-06-01T05:07:22.495Z,20.90
2018-06-01T05:09:50.989Z,21.10
2018-06-01T05:12:19.457Z,22.73
2018-06-01T05:14:47.857Z,21.53
2018-06-01T05:17:16.271Z,23.07
2018-06-01T05:19:44.823Z,23.00
2018-06-01T05:22:13.238Z,24.00
2018-06-01T05:24:42.150Z,24.63
2018-06-01T05:27:10.606Z,24.70
2018-06-01T05:29:39.031Z,24.37
2018-06-01T05:32:07.437Z,26.20
2018-06-01T05:34:35.852Z,24.80
2018-06-01T05:37:04.248Z,22.70
2018-06-01T05:39:32.648Z,25.10
2018-06-01T05:42:01.132Z,24.47
2018-06-01T05:44:29.613Z,24.77
2018-06-01T05:46:58.126Z,36.80
2018-06-01T05:49:26.765Z,35.60
2018-06-01T05:51:55.205Z,24.23
2018-06-01T05:54:23.839Z,16.80
2018-06-01T05:56:52.416Z,18.50
2018-06-01T05:59:20.922Z,7.40
2018-06-01T06:01:49.561Z,5.67
2018-06-01T06:04:18.235Z,5.20
2018-06-01T06:06:46.658Z,7.83
2018-06-01T06:09:15.393Z,11.93
2018-06-01T06:11:43.774Z,9.90
2018-06-01T06:14:12.189Z,11.40
2018-06-01T06:16:40.629Z,9.37
2018-06-01T06:19:09.049Z,8.97
2018-06-01T06:21:37.642Z,9.50
2018-06-01T06:24:06.159Z,9.10
2018-06-01T06:26:34.548Z,8.57
2018-06-01T06:29:03.019Z,9.10
2018-06-01T06:31:38.262Z,10.20
2018-06-01T06:34:07.764Z,10.33
2018-06-01T06:36:36.303Z,9.83
2018-06-01T06:39:05.421Z,8.90
2018-06-01T06:41:33.824Z,6.87
2018-06-01T06:44:02.207Z,7.67
2018-06-01T06:46:30.614Z,7.30
2018-06-01T06:49:00.104Z,7.40
2018-06-01T06:51:28.524Z,6.37
2018-06-01T06:53:57.004Z,7.40
2018-06-01T06:56:25.392Z,8.20
2018-06-01T06:58:53.982Z,8.50
2018-06-01T07:01:22.453Z,7.53
2018-06-01T07:03:50.955Z,7.80
2018-06-01T07:06:19.414Z,8.13
2018-06-01T07:08:47.793Z,8.37
2018-06-01T07:11:16.261Z,7.80
2018-06-01T07:13:44.751Z,8.97
2018-06-01T07:16:13.231Z,8.27
2018-06-01T07:18:41.715Z,7.47
2018-06-01T07:21:10.205Z,8.40
2018-06-01T07:23:38.720Z,8.77
2018-06-01T07:26:07.233Z,7.90
2018-06-01T07:28:36.606Z,8.30
2018-06-01T07:31:05.205Z,9.07
2018-06-01T07:33:33.638Z,10.30
2018-06-01T07:36:02.042Z,8.53
2018-06-01T07:38:30.580Z,8.80
2018-06-01T07:40:58.964Z,8.60
2018-06-01T07:43:27.539Z,10.07
2018-06-01T07:45:56.229Z,9.00
2018-06-01T07:48:25.036Z,8.87
2018-06-01T07:50:53.433Z,8.43
2018-06-01T07:53:21.869Z,8.10
2018-06-01T07:55:50.557Z,8.73
2018-06-01T07:58:19.137Z,7.00
2018-06-01T08:00:47.650Z,8.83
2018-06-01T08:03:16.082Z,7.37
2018-06-01T08:05:44.508Z,8.40
2018-06-01T08:08:13.173Z,8.80
2018-06-01T08:10:41.681Z,8.00
2018-06-01T08:13:10.247Z,7.27
2018-06-01T08:15:38.640Z,7.13
2018-06-01T08:18:07.177Z,7.43
2018-06-01T08:20:35.657Z,6.83
2018-06-01T08:23:04.070Z,7.33
2018-06-01T08:25:32.546Z,8.57
2018-06-01T08:28:01.022Z,7.60
2018-06-01T08:30:29.551Z,8.73
2018-06-01T08:32:57.999Z,8.17
2018-06-01T08:35:26.472Z,8.00
2018-06-01T08:37:54.930Z,6.87
2018-06-01T08:40:23.442Z,8.00
2018-06-01T08:42:51.970Z,7.57
2018-06-01T08:45:20.432Z,6.87
2018-06-01T08:47:48.862Z,9.40
2018-06-01T08:50:17.317Z,7.60
2018-06-01T08:52:45.827Z,8.13
2018-06-01T08:55:14.410Z,7.13
2018-06-01T08:57:43.007Z,7.47
2018-06-01T09:00:11.493Z,7.67
2018-06-01T09:02:40.011Z,8.00
2018-06-01T09:05:08.500Z,6.67
2018-06-01T09:07:37.042Z,7.03
2018-06-01T09:10:05.532Z,6.43
2018-06-01T09:12:34.933Z,6.00
2018-06-01T09:15:03.368Z,6.57
2018-06-01T09:17:31.855Z,6.63
2018-06-01T09:20:00.420Z,6.00
2018-06-01T09:22:28.846Z,6.90
2018-06-01T09:24:57.351Z,5.70
2018-06-01T09:27:25.801Z,6.70
2018-06-01T09:29:54.375Z,6.60
2018-06-01T09:32:22.819Z,6.03
2018-06-01T09:34:51.209Z,6.03
2018-06-01T09:37:19.652Z,6.20
2018-06-01T09:39:48.073Z,6.50
2018-06-01T09:42:16.652Z,6.10
2018-06-01T09:44:45.165Z,5.90
2018-06-01T09:47:13.609Z,6.40
2018-06-01T09:49:43.031Z,6.90
2018-06-01T09:52:11.440Z,7.43
2018-06-01T09:54:39.904Z,7.17
2018-06-01T09:57:08.481Z,6.80
2018-06-01T09:59:36.986Z,7.07
2018-06-01T10:02:05.378Z,6.20
2018-06-01T10:04:33.849Z,6.53
2018-06-01T10:07:02.317Z,6.43
2018-06-01T10:09:31.698Z,6.90
2018-06-01T10:12:00.155Z,6.17
2018-06-01T10:14:28.601Z,6.60
2018-06-01T10:16:57.009Z,8.17
2018-06-01T10:19:25.471Z,7.77
2018-06-01T10:21:53.944Z,8.10
2018-06-01T10:24:22.417Z,9.87
2018-06-01T10:26:50.876Z,10.50
2018-06-01T10:29:19.574Z,11.63
2018-06-01T10:31:48.065Z,11.30
2018-06-01T10:34:16.570Z,11.80
2018-06-01T10:36:45.040Z,9.83
2018-06-01T10:39:13.743Z,10.20
2018-06-01T10:41:42.528Z,12.00
2018-06-01T10:44:11.104Z,10.47
2018-06-01T10:46:39.504Z,10.43
2018-06-01T10:49:08.034Z,10.27
2018-06-01T10:51:36.586Z,10.33
2018-06-01T10:54:05.144Z,10.37
2018-06-01T10:56:33.759Z,9.53
2018-06-01T10:59:02.224Z,9.40
2018-06-01T11:01:30.724Z,8.67
2018-06-01T11:03:59.344Z,8.10
2018-06-01T11:06:28.032Z,8.77
2018-06-01T11:08:56.557Z,7.17
2018-06-01T11:11:24.954Z,7.77
2018-06-01T11:13:55.051Z,8.30
2018-06-01T11:16:23.730Z,9.47
2018-06-01T11:18:52.741Z,9.63
2018-06-01T11:21:21.445Z,9.80
2018-06-01T11:23:50.042Z,9.00
2018-06-01T11:26:18.590Z,8.50
2018-06-01T11:28:47.113Z,8.60
2018-06-01T11:31:15.810Z,7.40
2018-06-01T11:33:45.409Z,8.80
2018-06-01T11:36:14.404Z,8.40
2018-06-01T11:38:43.087Z,8.90
2018-06-01T11:41:12.508Z,8.70
2018-06-01T11:43:41.384Z,8.17
2018-06-01T11:46:10.021Z,8.97
2018-06-01T11:48:38.573Z,7.00
2018-06-01T11:51:07.072Z,7.73
2018-06-01T11:53:35.647Z,6.73
2018-06-01T11:56:04.063Z,7.00
2018-06-01T11:58:32.518Z,6.60
2018-06-01T12:01:00.988Z,6.33
2018-06-01T12:03:29.447Z,6.27
2018-06-01T12:05:58.082Z,5.83
2018-06-01T12:08:26.850Z,6.73
2018-06-01T12:10:55.334Z,5.13
2018-06-01T12:13:23.884Z,5.23
2018-06-01T12:15:52.325Z,5.27
2018-06-01T12:18:20.806Z,5.03
2018-06-01T12:20:49.372Z,6.63
2018-06-01T12:23:18.863Z,6.00
2018-06-01T12:25:47.444Z,5.63
2018-06-01T12:28:15.901Z,5.50
2018-06-01T12:30:44.512Z,5.53
2018-06-01T12:33:15.352Z,5.60
2018-06-01T12:35:44.864Z,5.00
2018-06-01T12:38:14.030Z,5.03
2018-06-01T12:40:42.777Z,5.10
2018-06-01T12:43:11.338Z,5.07
2018-06-01T12:45:39.728Z,5.00
2018-06-01T12:48:08.519Z,4.50
2018-06-01T12:50:37.152Z,4.60
2018-06-01T12:53:05.666Z,5.00
2018-06-01T12:55:34.117Z,5.07
2018-06-01T12:58:03.076Z,4.57
2018-06-01T13:00:31.673Z,4.30
2018-06-01T13:03:00.217Z,3.90
2018-06-01T13:05:29.276Z,3.27
2018-06-01T13:07:57.699Z,3.77
2018-06-01T13:10:26.378Z,3.50
2018-06-01T13:12:54.874Z,3.93
2018-06-01T13:15:23.344Z,3.70
2018-06-01T13:17:52.849Z,3.30
2018-06-01T13:20:21.476Z,3.53
2018-06-01T13:22:49.864Z,3.27
2018-06-01T13:25:19.576Z,3.07
2018-06-01T13:27:48.058Z,3.00
2018-06-01T13:30:16.458Z,3.10
2018-06-01T13:32:44.966Z,2.97
2018-06-01T13:35:17.406Z,2.70
2018-06-01T13:37:47.860Z,3.27
2018-06-01T13:40:16.527Z,2.90
2018-06-01T13:42:44.888Z,2.80
2018-06-01T13:45:13.364Z,3.17
2018-06-01T13:47:41.900Z,2.60
2018-06-01T13:50:10.544Z,2.90
2018-06-01T13:52:39.279Z,2.57
2018-06-01T13:55:09.043Z,2.90
2018-06-01T13:57:37.817Z,2.50
2018-06-01T14:00:08.172Z,2.60
2018-06-01T14:02:36.805Z,2.90
2018-06-01T14:05:06.256Z,3.00
2018-06-01T14:07:35.030Z,2.73
2018-06-01T14:10:03.377Z,2.97
2018-06-01T14:12:31.884Z,2.90
2018-06-01T14:15:00.731Z,2.73
2018-06-01T14:17:29.279Z,2.90
2018-06-01T14:19:57.672Z,3.20
2018-06-01T14:22:26.075Z,3.07
2018-06-01T14:24:54.610Z,3.37
2018-06-01T14:27:23.344Z,3.03
2018-06-01T14:29:52.343Z,2.63
2018-06-01T14:32:20.785Z,3.67
2018-06-01T14:34:50.807Z,2.77
2018-06-01T14:37:19.225Z,3.40
2018-06-01T14:39:48.592Z,3.70
2018-06-01T14:42:17.084Z,3.53
2018-06-01T14:44:45.538Z,3.63
2018-06-01T14:47:14.353Z,4.17
2018-06-01T14:49:42.724Z,4.03
2018-06-01T14:52:11.131Z,3.93
2018-06-01T14:54:39.767Z,4.30
2018-06-01T14:57:11.507Z,3.90
2018-06-01T14:59:40.644Z,4.73
2018-06-01T15:02:09.721Z,4.67
2018-06-01T15:04:38.497Z,4.23
2018-06-01T15:07:07.299Z,5.00
2018-06-01T15:09:36.311Z,4.07
2018-06-01T15:12:07.848Z,3.97
2018-06-01T15:14:36.859Z,4.50
2018-06-01T15:17:06.679Z,4.10
2018-06-01T15:19:35.367Z,4.30
2018-06-01T15:22:03.818Z,4.60
2018-06-01T15:24:35.838Z,4.20
2018-06-01T15:27:04.308Z,4.50
2018-06-01T15:29:32.772Z,4.40
2018-06-01T15:32:01.221Z,4.90
2018-06-01T15:34:29.586Z,4.77
2018-06-01T15:36:58.027Z,4.60
2018-06-01T15:39:28.525Z,4.20
2018-06-01T15:41:58.011Z,4.97
2018-06-01T15:44:26.528Z,5.80
2018-06-01T15:47:00.771Z,5.20
2018-06-01T15:49:29.486Z,4.83
2018-06-01T15:51:58.238Z,5.20
2018-06-01T15:54:26.658Z,5.63
2018-06-01T15:56:55.061Z,5.20
2018-06-01T15:59:23.589Z,5.00
2018-06-01T16:01:52.049Z,5.10
2018-06-01T16:04:25.640Z,5.27
2018-06-01T16:06:54.503Z,4.83
2018-06-01T16:09:24.211Z,4.57
2018-06-01T16:11:52.918Z,4.40
2018-06-01T16:14:21.681Z,4.10
2018-06-01T16:16:50.310Z,4.00
2018-06-01T16:19:18.784Z,3.33
2018-06-01T16:21:47.326Z,3.77
2018-06-01T16:24:15.837Z,3.00
2018-06-01T16:26:44.303Z,3.33
2018-06-01T16:29:12.781Z,2.90
2018-06-01T16:31:41.181Z,2.73
2018-06-01T16:34:09.682Z,2.70
2018-06-01T16:36:38.154Z,2.80
2018-06-01T16:39:06.547Z,2.40
2018-06-01T16:41:35.239Z,2.37
2018-06-01T16:44:03.626Z,2.57
2018-06-01T16:46:32.108Z,2.50
2018-06-01T16:49:02.594Z,2.30
2018-06-01T16:51:31.169Z,1.83
2018-06-01T16:54:01.033Z,2.07
2018-06-01T16:56:31.601Z,2.43
2018-06-01T16:59:00.162Z,2.03
2018-06-01T17:01:28.632Z,1.90
2018-06-01T17:03:57.376Z,2.27
2018-06-01T17:06:25.983Z,2.13
2018-06-01T17:08:54.469Z,2.50
2018-06-01T17:11:23.073Z,2.60
2018-06-01T17:13:51.572Z,2.67
2018-06-01T17:16:20.987Z,2.50
2018-06-01T17:18:49.384Z,2.83
2018-06-01T17:21:17.816Z,3.23
2018-06-01T17:23:46.165Z,2.93
2018-06-01T17:26:14.518Z,2.93
2018-06-01T17:28:42.907Z,2.70
2018-06-01T17:31:11.298Z,2.60
2018-06-01T17:33:39.748Z,3.17
2018-06-01T17:36:08.254Z,2.40
2018-06-01T17:38:36.858Z,2.97
2018-06-01T17:41:05.600Z,2.93
2018-06-01T17:43:35.110Z,2.90
2018-06-01T17:46:03.463Z,2.00
2018-06-01T17:48:32.879Z,1.97
2018-06-01T17:51:01.356Z,2.30
2018-06-01T17:53:29.767Z,2.20
2018-06-01T17:55:58.289Z,2.07
2018-06-01T17:58:27.731Z,2.33
2018-06-01T18:00:56.172Z,1.97
2018-06-01T18:03:24.633Z,2.23
2018-06-01T18:05:53.135Z,2.30
2018-06-01T18:08:21.658Z,2.10
2018-06-01T18:10:50.095Z,2.00
2018-06-01T18:13:18.555Z,2.07
2018-06-01T18:15:46.970Z,2.03
2018-06-01T18:18:15.484Z,1.93
2018-06-01T18:20:43.946Z,2.70
2018-06-01T18:23:12.404Z,2.10
2018-06-01T18:25:41.164Z,2.40
2018-06-01T18:28:09.572Z,2.10
2018-06-01T18:30:38.235Z,2.30
2018-06-01T18:33:06.671Z,2.40
2018-06-01T18:35:35.061Z,2.60
2018-06-01T18:38:03.538Z,2.27
2018-06-01T18:40:32.980Z,2.03
2018-06-01T18:43:01.477Z,1.90
2018-06-01T18:45:30.954Z,2.07
2018-06-01T18:47:59.385Z,1.93
2018-06-01T18:50:27.926Z,2.10
2018-06-01T18:52:56.353Z,2.10
2018-06-01T18:55:24.783Z,2.50
2018-06-01T18:57:53.194Z,2.77
2018-06-01T19:00:22.656Z,2.93
2018-06-01T19:02:51.079Z,2.70
2018-06-01T19:05:21.611Z,2.23
2018-06-01T19:07:51.295Z,2.17
2018-06-01T19:10:19.994Z,1.97
2018-06-01T19:12:49.287Z,2.00
2018-06-01T19:15:17.730Z,2.90
2018-06-01T19:17:46.125Z,3.20
2018-06-01T19:20:14.605Z,3.57
2018-06-01T19:22:43.083Z,3.00
2018-06-01T19:25:11.456Z,3.27
2018-06-01T19:27:40.024Z,2.80
2018-06-01T19:30:08.395Z,3.40
2018-06-01T19:32:36.767Z,4.30
2018-06-01T19:35:05.268Z,5.67
2018-06-01T19:37:33.657Z,6.63
2018-06-01T19:40:02.246Z,6.77
2018-06-01T19:42:30.729Z,8.27
2018-06-01T19:44:59.201Z,6.40
2018-06-01T19:47:27.709Z,6.20
2018-06-01T19:49:56.161Z,7.00
2018-06-01T19:52:24.763Z,7.97
2018-06-01T19:54:53.159Z,7.67
2018-06-01T19:57:21.552Z,7.30
2018-06-01T19:59:50.013Z,7.80
2018-06-01T20:02:18.695Z,8.80
2018-06-01T20:04:47.244Z,9.43
2018-06-01T20:07:16.701Z,10.43
2018-06-01T20:09:45.208Z,12.30
2018-06-01T20:12:13.707Z,12.03
2018-06-01T20:14:42.157Z,11.27
2018-06-01T20:17:10.802Z,12.63
2018-06-01T20:19:39.224Z,11.87
2018-06-01T20:22:07.646Z,12.20
2018-06-01T20:24:36.083Z,13.80
2018-06-01T20:27:04.460Z,15.43
2018-06-01T20:29:34.172Z,14.50
2018-06-01T20:32:03.129Z,15.20
2018-06-01T20:34:32.111Z,14.53
2018-06-01T20:37:01.328Z,14.37
2018-06-01T20:39:29.988Z,15.60
2018-06-01T20:41:59.276Z,15.37
2018-06-01T20:44:28.204Z,13.83
2018-06-01T20:46:57.609Z,16.77
2018-06-01T20:49:27.137Z,16.60
2018-06-01T20:51:58.127Z,14.80
2018-06-01T20:54:28.631Z,15.97
2018-06-01T20:56:59.011Z,15.60
2018-06-01T20:59:29.641Z,15.63
2018-06-01T21:01:58.846Z,15.37
2018-06-01T21:04:30.234Z,15.40
2018-06-01T21:06:59.208Z,14.87
2018-06-01T21:09:28.221Z,15.93
2018-06-01T21:11:57.571Z,16.10
2018-06-01T21:14:26.358Z,16.70
2018-06-01T21:16:55.673Z,14.00
2018-06-01T21:19:24.549Z,13.40
2018-06-01T21:21:54.709Z,14.27
2018-06-01T21:24:24.580Z,13.07
2018-06-01T21:26:53.609Z,10.77
2018-06-01T21:29:22.926Z,12.03
2018-06-01T21:31:51.919Z,10.60
2018-06-01T21:34:20.565Z,9.23
2018-06-01T21:36:49.026Z,9.77
2018-06-01T21:39:17.952Z,6.67
2018-06-01T21:41:46.934Z,5.43
2018-06-01T21:44:17.127Z,5.93
2018-06-01T21:46:46.331Z,5.43
2018-06-01T21:49:15.368Z,5.67
2018-06-01T21:51:45.028Z,7.10
2018-06-01T21:54:14.144Z,7.10
2018-06-01T21:56:44.476Z,8.30
2018-06-01T21:59:15.586Z,9.57
2018-06-01T22:01:44.635Z,9.90
2018-06-01T22:04:15.681Z,10.00
